sensor_id;sensor_type;location;lat;lon;timestamp;temperature;humidity
9033;DHT22;4551;53.164;8.210;2022-09-21T00:01:23;8.60;99.90
9033;DHT22;4551;53.164;8.210;2022-09-21T00:03:52;8.60;99.90
9033;DHT22;4551;53.164;8.210;2022-09-21T00:06:20;8.50;99.90
9033;DHT22;4551;53.164;8.210;2022-09-21T00:08:48;8.50;99.90
9033;DHT22;4551;53.164;8.210;2022-09-21T00:11:20;8.50;99.90
9033;DHT22;4551;53.164;8.210;2022-09-21T00:13:50;8.50;99.90
9033;DHT22;4551;53.164;8.210;2022-09-21T00:16:19;8.40;99.90
9033;DHT22;4551;53.164;8.210;2022-09-21T00:18:47;8.40;99.90
9033;DHT22;4551;53.164;8.210;2022-09-21T00:21:15;8.40;99.90
9033;DHT22;4551;53.164;8.210;2022-09-21T00:23:43;8.30;99.90
9033;DHT22;4551;53.164;8.210;2022-09-21T00:26:12;8.30;99.90
9033;DHT22;4551;53.164;8.210;2022-09-21T00:28:42;8.30;99.90
9033;DHT22;4551;53.164;8.210;2022-09-21T00:31:11;8.30;99.90
9033;DHT22;4551;53.164;8.210;2022-09-21T00:33:40;8.30;99.90
9033;DHT22;4551;53.164;8.210;2022-09-21T00:36:09;8.30;99.90
9033;DHT22;4551;53.164;8.210;2022-09-21T00:38:37;8.20;99.90
9033;DHT22;4551;53.164;8.210;2022-09-21T00:41:06;8.30;99.90
9033;DHT22;4551;53.164;8.210;2022-09-21T00:43:35;8.20;99.90
9033;DHT22;4551;53.164;8.210;2022-09-21T00:46:06;8.10;99.90
9033;DHT22;4551;53.164;8.210;2022-09-21T00:48:37;8.10;99.90
9033;DHT22;4551;53.164;8.210;2022-09-21T00:51:05;8.10;99.90
9033;DHT22;4551;53.164;8.210;2022-09-21T00:53:34;8.10;99.90
9033;DHT22;4551;53.164;8.210;2022-09-21T00:56:02;8.00;99.90
9033;DHT22;4551;53.164;8.210;2022-09-21T00:58:33;8.00;99.90
9033;DHT22;4551;53.164;8.210;2022-09-21T01:01:05;8.00;99.90
9033;DHT22;4551;53.164;8.210;2022-09-21T01:03:33;8.00;99.90
9033;DHT22;4551;53.164;8.210;2022-09-21T01:06:01;8.00;99.90
9033;DHT22;4551;53.164;8.210;2022-09-21T01:08:29;8.00;99.90
9033;DHT22;4551;53.164;8.210;2022-09-21T01:11:06;8.00;99.90
9033;DHT22;4551;53.164;8.210;2022-09-21T01:13:40;7.90;99.90
9033;DHT22;4551;53.164;8.210;2022-09-21T01:16:15;7.90;99.90
9033;DHT22;4551;53.164;8.210;2022-09-21T01:18:45;7.90;99.90
9033;DHT22;4551;53.164;8.210;2022-09-21T01:21:17;7.80;99.90
9033;DHT22;4551;53.164;8.210;2022-09-21T01:26:35;7.80;99.90
9033;DHT22;4551;53.164;8.210;2022-09-21T01:29:19;7.80;99.90
9033;DHT22;4551;53.164;8.210;2022-09-21T01:31:51;7.80;99.90
9033;DHT22;4551;53.164;8.210;2022-09-21T01:34:23;7.80;99.90
9033;DHT22;4551;53.164;8.210;2022-09-21T01:36:52;7.70;99.90
9033;DHT22;4551;53.164;8.210;2022-09-21T01:39:21;7.70;99.90
9033;DHT22;4551;53.164;8.210;2022-09-21T01:41:49;7.70;99.90
9033;DHT22;4551;53.164;8.210;2022-09-21T01:44:20;7.70;99.90
9033;DHT22;4551;53.164;8.210;2022-09-21T01:46:49;7.70;99.90
9033;DHT22;4551;53.164;8.210;2022-09-21T01:49:19;7.60;99.90
9033;DHT22;4551;53.164;8.210;2022-09-21T01:51:49;7.60;99.90
9033;DHT22;4551;53.164;8.210;2022-09-21T01:54:19;7.60;99.90
9033;DHT22;4551;53.164;8.210;2022-09-21T01:56:48;7.60;99.90
9033;DHT22;4551;53.164;8.210;2022-09-21T01:59:21;7.60;99.90
9033;DHT22;4551;53.164;8.210;2022-09-21T02:01:56;7.60;99.90
9033;DHT22;4551;53.164;8.210;2022-09-21T02:04:25;7.60;99.90
9033;DHT22;4551;53.164;8.210;2022-09-21T02:06:53;7.60;99.90
9033;DHT22;4551;53.164;8.210;2022-09-21T02:09:22;7.60;99.90
9033;DHT22;4551;53.164;8.210;2022-09-21T02:11:50;7.60;99.90
9033;DHT22;4551;53.164;8.210;2022-09-21T02:14:21;7.50;99.90
9033;DHT22;4551;53.164;8.210;2022-09-21T02:16:52;7.50;99.90
9033;DHT22;4551;53.164;8.210;2022-09-21T02:19:24;7.50;99.90
9033;DHT22;4551;53.164;8.210;2022-09-21T02:21:56;7.50;99.90
9033;DHT22;4551;53.164;8.210;2022-09-21T02:24:30;7.50;99.90
9033;DHT22;4551;53.164;8.210;2022-09-21T02:27:02;7.40;99.90
9033;DHT22;4551;53.164;8.210;2022-09-21T02:29:35;7.40;99.90
9033;DHT22;4551;53.164;8.210;2022-09-21T02:32:07;7.40;99.90
9033;DHT22;4551;53.164;8.210;2022-09-21T02:34:38;7.40;99.90
9033;DHT22;4551;53.164;8.210;2022-09-21T02:37:09;7.40;99.90
9033;DHT22;4551;53.164;8.210;2022-09-21T02:39:40;7.30;99.90
9033;DHT22;4551;53.164;8.210;2022-09-21T02:42:10;7.30;99.90
9033;DHT22;4551;53.164;8.210;2022-09-21T02:44:41;7.30;99.90
9033;DHT22;4551;53.164;8.210;2022-09-21T02:47:12;7.20;99.90
9033;DHT22;4551;53.164;8.210;2022-09-21T02:49:42;7.20;99.90
9033;DHT22;4551;53.164;8.210;2022-09-21T02:52:13;7.20;99.90
9033;DHT22;4551;53.164;8.210;2022-09-21T02:54:42;7.20;99.90
9033;DHT22;4551;53.164;8.210;2022-09-21T02:57:15;7.20;99.90
9033;DHT22;4551;53.164;8.210;2022-09-21T02:59:46;7.20;99.90
9033;DHT22;4551;53.164;8.210;2022-09-21T03:02:14;7.10;99.90
9033;DHT22;4551;53.164;8.210;2022-09-21T03:04:43;7.10;99.90
9033;DHT22;4551;53.164;8.210;2022-09-21T03:07:13;7.10;99.90
9033;DHT22;4551;53.164;8.210;2022-09-21T03:09:41;7.10;99.90
9033;DHT22;4551;53.164;8.210;2022-09-21T03:12:09;7.10;99.90
9033;DHT22;4551;53.164;8.210;2022-09-21T03:14:37;7.10;99.90
9033;DHT22;4551;53.164;8.210;2022-09-21T03:17:06;7.00;99.90
9033;DHT22;4551;53.164;8.210;2022-09-21T03:19:35;7.00;99.90
9033;DHT22;4551;53.164;8.210;2022-09-21T03:22:03;7.00;99.90
9033;DHT22;4551;53.164;8.210;2022-09-21T03:24:31;7.00;99.90
9033;DHT22;4551;53.164;8.210;2022-09-21T03:27:14;7.00;99.90
9033;DHT22;4551;53.164;8.210;2022-09-21T03:29:43;6.90;99.90
9033;DHT22;4551;53.164;8.210;2022-09-21T03:32:12;6.90;99.90
9033;DHT22;4551;53.164;8.210;2022-09-21T03:34:40;6.90;99.90
9033;DHT22;4551;53.164;8.210;2022-09-21T03:37:08;6.90;99.90
9033;DHT22;4551;53.164;8.210;2022-09-21T03:39:36;6.90;99.90
9033;DHT22;4551;53.164;8.210;2022-09-21T03:42:04;6.90;99.90
9033;DHT22;4551;53.164;8.210;2022-09-21T03:44:32;6.80;99.90
9033;DHT22;4551;53.164;8.210;2022-09-21T03:47:05;6.80;99.90
9033;DHT22;4551;53.164;8.210;2022-09-21T03:49:34;6.80;99.90
9033;DHT22;4551;53.164;8.210;2022-09-21T03:52:02;6.80;99.90
9033;DHT22;4551;53.164;8.210;2022-09-21T03:54:30;6.80;99.90
9033;DHT22;4551;53.164;8.210;2022-09-21T03:56:58;6.80;99.90
9033;DHT22;4551;53.164;8.210;2022-09-21T03:59:26;6.70;99.90
9033;DHT22;4551;53.164;8.210;2022-09-21T04:01:54;6.70;99.90
9033;DHT22;4551;53.164;8.210;2022-09-21T04:04:22;6.70;99.90
9033;DHT22;4551;53.164;8.210;2022-09-21T04:06:52;6.70;99.90
9033;DHT22;4551;53.164;8.210;2022-09-21T04:09:20;6.70;99.90
9033;DHT22;4551;53.164;8.210;2022-09-21T04:11:48;6.70;99.90
9033;DHT22;4551;53.164;8.210;2022-09-21T04:14:16;6.70;99.90
9033;DHT22;4551;53.164;8.210;2022-09-21T04:16:44;6.70;99.90
9033;DHT22;4551;53.164;8.210;2022-09-21T04:19:12;6.60;99.90
9033;DHT22;4551;53.164;8.210;2022-09-21T04:21:40;6.60;99.90
9033;DHT22;4551;53.164;8.210;2022-09-21T04:24:09;6.60;99.90
9033;DHT22;4551;53.164;8.210;2022-09-21T04:26:37;6.60;99.90
9033;DHT22;4551;53.164;8.210;2022-09-21T04:29:09;6.50;99.90
9033;DHT22;4551;53.164;8.210;2022-09-21T04:31:37;6.50;99.90
9033;DHT22;4551;53.164;8.210;2022-09-21T04:34:05;6.50;99.90
9033;DHT22;4551;53.164;8.210;2022-09-21T04:36:34;6.50;99.90
9033;DHT22;4551;53.164;8.210;2022-09-21T04:39:02;6.50;99.90
9033;DHT22;4551;53.164;8.210;2022-09-21T04:41:32;6.50;99.90
9033;DHT22;4551;53.164;8.210;2022-09-21T04:44:00;6.50;99.90
9033;DHT22;4551;53.164;8.210;2022-09-21T04:46:28;6.50;99.90
9033;DHT22;4551;53.164;8.210;2022-09-21T04:48:56;6.40;99.90
9033;DHT22;4551;53.164;8.210;2022-09-21T04:51:24;6.40;99.90
9033;DHT22;4551;53.164;8.210;2022-09-21T04:53:52;6.40;99.90
9033;DHT22;4551;53.164;8.210;2022-09-21T04:56:20;6.40;99.90
9033;DHT22;4551;53.164;8.210;2022-09-21T04:58:50;6.40;99.90
9033;DHT22;4551;53.164;8.210;2022-09-21T05:01:17;6.40;99.90
9033;DHT22;4551;53.164;8.210;2022-09-21T05:03:45;6.30;99.90
9033;DHT22;4551;53.164;8.210;2022-09-21T05:06:13;6.30;99.90
9033;DHT22;4551;53.164;8.210;2022-09-21T05:08:41;6.30;99.90
9033;DHT22;4551;53.164;8.210;2022-09-21T05:11:27;6.30;99.90
9033;DHT22;4551;53.164;8.210;2022-09-21T05:13:56;6.30;99.90
9033;DHT22;4551;53.164;8.210;2022-09-21T05:16:25;6.30;99.90
9033;DHT22;4551;53.164;8.210;2022-09-21T05:18:53;6.20;99.90
9033;DHT22;4551;53.164;8.210;2022-09-21T05:21:21;6.30;99.90
9033;DHT22;4551;53.164;8.210;2022-09-21T05:23:49;6.30;99.90
9033;DHT22;4551;53.164;8.210;2022-09-21T05:26:18;6.30;99.90
9033;DHT22;4551;53.164;8.210;2022-09-21T05:28:46;6.30;99.90
9033;DHT22;4551;53.164;8.210;2022-09-21T05:31:21;6.30;99.90
9033;DHT22;4551;53.164;8.210;2022-09-21T05:33:55;6.20;99.90
9033;DHT22;4551;53.164;8.210;2022-09-21T05:36:37;6.30;99.90
9033;DHT22;4551;53.164;8.210;2022-09-21T05:39:07;6.30;99.90
9033;DHT22;4551;53.164;8.210;2022-09-21T05:41:35;6.40;99.90
9033;DHT22;4551;53.164;8.210;2022-09-21T05:44:04;6.40;99.90
9033;DHT22;4551;53.164;8.210;2022-09-21T05:46:36;6.40;99.90
9033;DHT22;4551;53.164;8.210;2022-09-21T05:49:05;6.40;99.90
9033;DHT22;4551;53.164;8.210;2022-09-21T05:51:37;6.40;99.90
9033;DHT22;4551;53.164;8.210;2022-09-21T05:54:08;6.50;99.90
9033;DHT22;4551;53.164;8.210;2022-09-21T05:56:41;6.50;99.90
9033;DHT22;4551;53.164;8.210;2022-09-21T05:59:15;6.50;99.90
9033;DHT22;4551;53.164;8.210;2022-09-21T06:01:54;6.50;99.90
9033;DHT22;4551;53.164;8.210;2022-09-21T06:04:25;6.60;99.90
9033;DHT22;4551;53.164;8.210;2022-09-21T06:06:53;6.60;99.90
9033;DHT22;4551;53.164;8.210;2022-09-21T06:09:21;6.60;99.90
9033;DHT22;4551;53.164;8.210;2022-09-21T06:11:51;6.70;99.90
9033;DHT22;4551;53.164;8.210;2022-09-21T06:14:19;6.70;99.90
9033;DHT22;4551;53.164;8.210;2022-09-21T06:16:52;6.70;99.90
9033;DHT22;4551;53.164;8.210;2022-09-21T06:19:20;6.80;99.90
9033;DHT22;4551;53.164;8.210;2022-09-21T06:21:48;6.80;99.90
9033;DHT22;4551;53.164;8.210;2022-09-21T06:24:16;6.80;99.90
9033;DHT22;4551;53.164;8.210;2022-09-21T06:26:44;6.90;99.90
9033;DHT22;4551;53.164;8.210;2022-09-21T06:29:11;6.90;99.90
9033;DHT22;4551;53.164;8.210;2022-09-21T06:31:39;7.00;99.90
9033;DHT22;4551;53.164;8.210;2022-09-21T06:34:09;7.10;99.90
9033;DHT22;4551;53.164;8.210;2022-09-21T06:36:36;7.10;99.90
9033;DHT22;4551;53.164;8.210;2022-09-21T06:39:04;7.10;99.90
9033;DHT22;4551;53.164;8.210;2022-09-21T06:41:32;7.20;99.90
9033;DHT22;4551;53.164;8.210;2022-09-21T06:44:00;7.20;99.90
9033;DHT22;4551;53.164;8.210;2022-09-21T06:46:28;7.30;99.90
9033;DHT22;4551;53.164;8.210;2022-09-21T06:48:56;7.30;99.90
9033;DHT22;4551;53.164;8.210;2022-09-21T06:51:25;7.40;99.90
9033;DHT22;4551;53.164;8.210;2022-09-21T06:53:53;7.40;99.90
9033;DHT22;4551;53.164;8.210;2022-09-21T06:56:22;7.50;99.90
9033;DHT22;4551;53.164;8.210;2022-09-21T06:58:50;7.50;99.90
9033;DHT22;4551;53.164;8.210;2022-09-21T07:01:18;7.60;99.90
9033;DHT22;4551;53.164;8.210;2022-09-21T07:03:47;7.60;99.90
9033;DHT22;4551;53.164;8.210;2022-09-21T07:06:16;7.70;99.90
9033;DHT22;4551;53.164;8.210;2022-09-21T07:08:45;7.80;99.90
9033;DHT22;4551;53.164;8.210;2022-09-21T07:11:33;7.90;99.90
9033;DHT22;4551;53.164;8.210;2022-09-21T07:14:01;7.90;99.90
9033;DHT22;4551;53.164;8.210;2022-09-21T07:16:31;7.90;99.90
9033;DHT22;4551;53.164;8.210;2022-09-21T07:18:59;8.00;99.90
9033;DHT22;4551;53.164;8.210;2022-09-21T07:21:36;8.10;99.90
9033;DHT22;4551;53.164;8.210;2022-09-21T07:24:06;8.10;99.90
9033;DHT22;4551;53.164;8.210;2022-09-21T07:26:38;8.20;99.90
9033;DHT22;4551;53.164;8.210;2022-09-21T07:29:06;8.30;99.90
9033;DHT22;4551;53.164;8.210;2022-09-21T07:31:34;8.30;99.90
9033;DHT22;4551;53.164;8.210;2022-09-21T07:34:02;8.40;99.90
9033;DHT22;4551;53.164;8.210;2022-09-21T07:36:30;8.50;99.90
9033;DHT22;4551;53.164;8.210;2022-09-21T07:38:58;8.50;99.90
9033;DHT22;4551;53.164;8.210;2022-09-21T07:41:28;8.60;99.90
9033;DHT22;4551;53.164;8.210;2022-09-21T07:43:55;8.70;99.90
9033;DHT22;4551;53.164;8.210;2022-09-21T07:46:23;8.80;99.90
9033;DHT22;4551;53.164;8.210;2022-09-21T07:48:52;8.90;99.90
9033;DHT22;4551;53.164;8.210;2022-09-21T07:51:20;8.90;99.90
9033;DHT22;4551;53.164;8.210;2022-09-21T07:53:52;9.00;99.90
9033;DHT22;4551;53.164;8.210;2022-09-21T07:56:20;9.00;99.90
9033;DHT22;4551;53.164;8.210;2022-09-21T07:58:50;9.10;99.90
9033;DHT22;4551;53.164;8.210;2022-09-21T08:01:32;9.20;99.90
9033;DHT22;4551;53.164;8.210;2022-09-21T08:04:01;9.30;99.90
9033;DHT22;4551;53.164;8.210;2022-09-21T08:06:29;9.40;99.90
9033;DHT22;4551;53.164;8.210;2022-09-21T08:08:58;9.50;99.90
9033;DHT22;4551;53.164;8.210;2022-09-21T08:11:27;9.50;99.90
9033;DHT22;4551;53.164;8.210;2022-09-21T08:13:58;9.60;99.90
9033;DHT22;4551;53.164;8.210;2022-09-21T08:16:26;9.70;99.90
9033;DHT22;4551;53.164;8.210;2022-09-21T08:18:55;9.70;99.90
9033;DHT22;4551;53.164;8.210;2022-09-21T08:21:23;9.80;99.90
9033;DHT22;4551;53.164;8.210;2022-09-21T08:23:52;9.80;99.90
9033;DHT22;4551;53.164;8.210;2022-09-21T08:26:20;9.90;99.90
9033;DHT22;4551;53.164;8.210;2022-09-21T08:28:50;10.00;99.90
9033;DHT22;4551;53.164;8.210;2022-09-21T08:31:20;10.00;99.90
9033;DHT22;4551;53.164;8.210;2022-09-21T08:33:50;10.10;99.90
9033;DHT22;4551;53.164;8.210;2022-09-21T08:36:18;10.20;99.90
9033;DHT22;4551;53.164;8.210;2022-09-21T08:38:46;10.20;99.90
9033;DHT22;4551;53.164;8.210;2022-09-21T08:41:15;10.30;99.90
9033;DHT22;4551;53.164;8.210;2022-09-21T08:43:45;10.40;99.90
9033;DHT22;4551;53.164;8.210;2022-09-21T08:46:15;10.50;99.90
9033;DHT22;4551;53.164;8.210;2022-09-21T08:48:47;10.60;99.90
9033;DHT22;4551;53.164;8.210;2022-09-21T08:51:16;10.60;99.90
9033;DHT22;4551;53.164;8.210;2022-09-21T08:53:48;10.60;99.90
9033;DHT22;4551;53.164;8.210;2022-09-21T08:56:17;10.70;99.90
9033;DHT22;4551;53.164;8.210;2022-09-21T08:58:47;10.80;99.90
9033;DHT22;4551;53.164;8.210;2022-09-21T09:01:29;10.90;99.90
9033;DHT22;4551;53.164;8.210;2022-09-21T09:04:03;11.00;99.90
9033;DHT22;4551;53.164;8.210;2022-09-21T09:06:35;11.10;99.90
9033;DHT22;4551;53.164;8.210;2022-09-21T09:09:09;11.10;99.90
9033;DHT22;4551;53.164;8.210;2022-09-21T09:11:43;11.20;99.90
9033;DHT22;4551;53.164;8.210;2022-09-21T09:14:19;11.30;99.90
9033;DHT22;4551;53.164;8.210;2022-09-21T09:16:51;11.30;99.90
9033;DHT22;4551;53.164;8.210;2022-09-21T09:19:25;11.40;99.90
9033;DHT22;4551;53.164;8.210;2022-09-21T09:21:54;11.50;99.90
9033;DHT22;4551;53.164;8.210;2022-09-21T09:24:28;11.60;99.90
9033;DHT22;4551;53.164;8.210;2022-09-21T09:26:58;11.60;99.90
9033;DHT22;4551;53.164;8.210;2022-09-21T09:29:30;11.70;99.90
9033;DHT22;4551;53.164;8.210;2022-09-21T09:32:00;11.80;99.90
9033;DHT22;4551;53.164;8.210;2022-09-21T09:34:30;11.90;99.90
9033;DHT22;4551;53.164;8.210;2022-09-21T09:37:00;12.00;99.90
9033;DHT22;4551;53.164;8.210;2022-09-21T09:39:32;12.00;99.90
9033;DHT22;4551;53.164;8.210;2022-09-21T09:42:16;12.00;99.90
9033;DHT22;4551;53.164;8.210;2022-09-21T09:45:02;12.10;99.90
9033;DHT22;4551;53.164;8.210;2022-09-21T09:47:35;12.20;99.90
9033;DHT22;4551;53.164;8.210;2022-09-21T09:50:10;12.20;99.90
9033;DHT22;4551;53.164;8.210;2022-09-21T09:52:40;12.30;99.90
9033;DHT22;4551;53.164;8.210;2022-09-21T09:55:11;12.30;99.90
9033;DHT22;4551;53.164;8.210;2022-09-21T09:57:42;12.40;99.90
9033;DHT22;4551;53.164;8.210;2022-09-21T10:00:11;12.40;99.90
9033;DHT22;4551;53.164;8.210;2022-09-21T10:02:44;12.50;99.90
9033;DHT22;4551;53.164;8.210;2022-09-21T10:05:19;12.50;99.90
9033;DHT22;4551;53.164;8.210;2022-09-21T10:07:47;12.60;99.90
9033;DHT22;4551;53.164;8.210;2022-09-21T10:13:05;12.80;99.90
9033;DHT22;4551;53.164;8.210;2022-09-21T10:15:38;12.90;99.90
9033;DHT22;4551;53.164;8.210;2022-09-21T10:18:10;13.00;99.90
9033;DHT22;4551;53.164;8.210;2022-09-21T10:20:44;13.00;99.90
9033;DHT22;4551;53.164;8.210;2022-09-21T10:23:19;13.10;99.90
9033;DHT22;4551;53.164;8.210;2022-09-21T10:25:51;13.10;99.90
9033;DHT22;4551;53.164;8.210;2022-09-21T10:28:20;13.10;99.90
9033;DHT22;4551;53.164;8.210;2022-09-21T10:30:49;13.30;99.90
9033;DHT22;4551;53.164;8.210;2022-09-21T10:33:17;13.30;99.90
9033;DHT22;4551;53.164;8.210;2022-09-21T10:35:50;13.30;99.90
9033;DHT22;4551;53.164;8.210;2022-09-21T10:38:19;13.30;99.90
9033;DHT22;4551;53.164;8.210;2022-09-21T10:40:48;13.40;99.90
9033;DHT22;4551;53.164;8.210;2022-09-21T10:43:22;13.40;99.90
9033;DHT22;4551;53.164;8.210;2022-09-21T10:45:51;13.50;99.90
9033;DHT22;4551;53.164;8.210;2022-09-21T10:48:21;13.50;99.90
9033;DHT22;4551;53.164;8.210;2022-09-21T10:50:51;13.60;99.90
9033;DHT22;4551;53.164;8.210;2022-09-21T10:53:22;13.70;99.90
9033;DHT22;4551;53.164;8.210;2022-09-21T10:55:52;13.80;99.90
9033;DHT22;4551;53.164;8.210;2022-09-21T10:59:08;13.90;99.90
9033;DHT22;4551;53.164;8.210;2022-09-21T11:01:29;14.00;99.90
9033;DHT22;4551;53.164;8.210;2022-09-21T11:03:58;14.00;99.90
9033;DHT22;4551;53.164;8.210;2022-09-21T11:06:29;14.10;99.90
9033;DHT22;4551;53.164;8.210;2022-09-21T11:09:00;14.10;99.90
9033;DHT22;4551;53.164;8.210;2022-09-21T11:11:34;14.10;99.90
9033;DHT22;4551;53.164;8.210;2022-09-21T11:14:08;14.10;99.90
9033;DHT22;4551;53.164;8.210;2022-09-21T11:16:39;14.10;99.90
9033;DHT22;4551;53.164;8.210;2022-09-21T11:19:11;14.20;99.90
9033;DHT22;4551;53.164;8.210;2022-09-21T11:21:43;14.20;99.90
9033;DHT22;4551;53.164;8.210;2022-09-21T11:24:16;14.30;99.90
9033;DHT22;4551;53.164;8.210;2022-09-21T11:26:48;14.30;99.90
9033;DHT22;4551;53.164;8.210;2022-09-21T11:29:18;14.40;99.90
9033;DHT22;4551;53.164;8.210;2022-09-21T11:31:51;14.50;99.90
9033;DHT22;4551;53.164;8.210;2022-09-21T11:34:31;14.60;99.90
9033;DHT22;4551;53.164;8.210;2022-09-21T11:37:06;14.70;99.90
9033;DHT22;4551;53.164;8.210;2022-09-21T11:39:42;14.80;99.90
9033;DHT22;4551;53.164;8.210;2022-09-21T11:42:15;14.90;99.90
9033;DHT22;4551;53.164;8.210;2022-09-21T11:44:49;15.00;99.90
9033;DHT22;4551;53.164;8.210;2022-09-21T11:47:27;15.10;99.90
9033;DHT22;4551;53.164;8.210;2022-09-21T11:50:01;15.10;99.90
9033;DHT22;4551;53.164;8.210;2022-09-21T11:52:58;15.10;99.90
9033;DHT22;4551;53.164;8.210;2022-09-21T11:55:35;15.20;99.90
9033;DHT22;4551;53.164;8.210;2022-09-21T11:58:11;15.30;99.90
9033;DHT22;4551;53.164;8.210;2022-09-21T12:00:47;15.40;99.90
9033;DHT22;4551;53.164;8.210;2022-09-21T12:06:10;15.70;99.90
9033;DHT22;4551;53.164;8.210;2022-09-21T12:08:47;15.80;99.90
9033;DHT22;4551;53.164;8.210;2022-09-21T12:11:21;15.90;99.90
9033;DHT22;4551;53.164;8.210;2022-09-21T12:13:52;16.10;99.90
9033;DHT22;4551;53.164;8.210;2022-09-21T12:16:26;16.30;99.90
9033;DHT22;4551;53.164;8.210;2022-09-21T12:19:00;16.50;99.90
9033;DHT22;4551;53.164;8.210;2022-09-21T12:21:32;16.60;99.90
9033;DHT22;4551;53.164;8.210;2022-09-21T12:24:03;16.70;99.90
9033;DHT22;4551;53.164;8.210;2022-09-21T12:26:33;16.70;99.90
9033;DHT22;4551;53.164;8.210;2022-09-21T12:29:03;16.80;99.90
9033;DHT22;4551;53.164;8.210;2022-09-21T12:31:34;16.90;99.90
9033;DHT22;4551;53.164;8.210;2022-09-21T12:34:07;17.00;99.90
9033;DHT22;4551;53.164;8.210;2022-09-21T12:36:38;17.20;99.90
9033;DHT22;4551;53.164;8.210;2022-09-21T12:39:12;17.20;99.90
9033;DHT22;4551;53.164;8.210;2022-09-21T12:41:44;17.20;99.90
9033;DHT22;4551;53.164;8.210;2022-09-21T12:44:16;17.20;99.90
9033;DHT22;4551;53.164;8.210;2022-09-21T12:46:45;17.20;99.90
9033;DHT22;4551;53.164;8.210;2022-09-21T12:49:18;17.20;99.90
9033;DHT22;4551;53.164;8.210;2022-09-21T12:51:49;17.40;99.90
9033;DHT22;4551;53.164;8.210;2022-09-21T12:54:24;17.50;99.90
9033;DHT22;4551;53.164;8.210;2022-09-21T12:56:56;17.60;99.90
9033;DHT22;4551;53.164;8.210;2022-09-21T12:59:29;17.80;99.90
9033;DHT22;4551;53.164;8.210;2022-09-21T13:02:00;18.00;99.90
9033;DHT22;4551;53.164;8.210;2022-09-21T13:04:46;18.10;99.90
9033;DHT22;4551;53.164;8.210;2022-09-21T13:07:21;18.20;99.90
9033;DHT22;4551;53.164;8.210;2022-09-21T13:09:57;18.20;99.90
9033;DHT22;4551;53.164;8.210;2022-09-21T13:12:26;18.20;99.90
9033;DHT22;4551;53.164;8.210;2022-09-21T13:14:58;18.10;99.90
9033;DHT22;4551;53.164;8.210;2022-09-21T13:17:29;18.00;99.90
9033;DHT22;4551;53.164;8.210;2022-09-21T13:19:58;18.20;99.90
9033;DHT22;4551;53.164;8.210;2022-09-21T13:22:29;18.30;99.90
9033;DHT22;4551;53.164;8.210;2022-09-21T13:25:02;18.30;99.90
9033;DHT22;4551;53.164;8.210;2022-09-21T13:30:35;18.20;99.90
9033;DHT22;4551;53.164;8.210;2022-09-21T13:33:27;18.40;99.90
9033;DHT22;4551;53.164;8.210;2022-09-21T13:35:59;18.40;99.90
9033;DHT22;4551;53.164;8.210;2022-09-21T13:38:28;18.60;99.90
9033;DHT22;4551;53.164;8.210;2022-09-21T13:40:59;19.00;99.90
9033;DHT22;4551;53.164;8.210;2022-09-21T13:43:43;19.50;99.90
9033;DHT22;4551;53.164;8.210;2022-09-21T13:48:59;20.40;99.90
9033;DHT22;4551;53.164;8.210;2022-09-21T13:51:28;20.70;99.90
9033;DHT22;4551;53.164;8.210;2022-09-21T13:54:00;20.90;99.90
9033;DHT22;4551;53.164;8.210;2022-09-21T13:56:30;21.20;99.90
9033;DHT22;4551;53.164;8.210;2022-09-21T13:58:59;21.40;99.90
9033;DHT22;4551;53.164;8.210;2022-09-21T14:01:29;21.90;99.90
9033;DHT22;4551;53.164;8.210;2022-09-21T14:04:17;22.30;99.90
9033;DHT22;4551;53.164;8.210;2022-09-21T14:06:46;22.80;99.90
9033;DHT22;4551;53.164;8.210;2022-09-21T14:09:19;23.30;99.90
9033;DHT22;4551;53.164;8.210;2022-09-21T14:11:53;23.60;99.90
9033;DHT22;4551;53.164;8.210;2022-09-21T14:14:24;23.80;99.90
9033;DHT22;4551;53.164;8.210;2022-09-21T14:16:54;24.10;99.90
9033;DHT22;4551;53.164;8.210;2022-09-21T14:27:42;24.90;99.90
9033;DHT22;4551;53.164;8.210;2022-09-21T14:30:16;25.50;99.90
9033;DHT22;4551;53.164;8.210;2022-09-21T14:32:46;25.90;99.90
9033;DHT22;4551;53.164;8.210;2022-09-21T14:35:17;26.10;99.90
9033;DHT22;4551;53.164;8.210;2022-09-21T14:37:48;26.00;99.90
9033;DHT22;4551;53.164;8.210;2022-09-21T14:40:19;25.90;99.90
9033;DHT22;4551;53.164;8.210;2022-09-21T14:42:50;25.50;99.90
9033;DHT22;4551;53.164;8.210;2022-09-21T14:45:22;25.20;99.90
9033;DHT22;4551;53.164;8.210;2022-09-21T14:47:56;24.90;99.90
9033;DHT22;4551;53.164;8.210;2022-09-21T14:50:29;24.50;99.90
9033;DHT22;4551;53.164;8.210;2022-09-21T14:55:54;24.10;99.90
9033;DHT22;4551;53.164;8.210;2022-09-21T14:58:31;24.00;99.90
9033;DHT22;4551;53.164;8.210;2022-09-21T15:01:14;24.00;99.90
9033;DHT22;4551;53.164;8.210;2022-09-21T15:03:52;23.90;99.90
9033;DHT22;4551;53.164;8.210;2022-09-21T15:06:23;23.80;99.90
9033;DHT22;4551;53.164;8.210;2022-09-21T15:09:26;23.40;99.90
9033;DHT22;4551;53.164;8.210;2022-09-21T15:12:13;23.00;99.90
9033;DHT22;4551;53.164;8.210;2022-09-21T15:14:45;22.90;99.90
9033;DHT22;4551;53.164;8.210;2022-09-21T15:17:17;23.00;99.90
9033;DHT22;4551;53.164;8.210;2022-09-21T15:19:49;22.90;99.90
9033;DHT22;4551;53.164;8.210;2022-09-21T15:22:18;22.80;99.90
9033;DHT22;4551;53.164;8.210;2022-09-21T15:24:47;22.80;99.90
9033;DHT22;4551;53.164;8.210;2022-09-21T15:27:16;22.90;99.90
9033;DHT22;4551;53.164;8.210;2022-09-21T15:29:46;22.90;99.90
9033;DHT22;4551;53.164;8.210;2022-09-21T15:32:20;22.90;99.90
9033;DHT22;4551;53.164;8.210;2022-09-21T15:34:56;23.10;99.90
9033;DHT22;4551;53.164;8.210;2022-09-21T15:37:25;23.20;99.90
9033;DHT22;4551;53.164;8.210;2022-09-21T15:40:00;23.20;99.90
9033;DHT22;4551;53.164;8.210;2022-09-21T15:42:28;23.30;99.90
9033;DHT22;4551;53.164;8.210;2022-09-21T15:45:17;23.30;99.90
9033;DHT22;4551;53.164;8.210;2022-09-21T15:47:45;23.30;99.90
9033;DHT22;4551;53.164;8.210;2022-09-21T15:50:13;23.20;99.90
9033;DHT22;4551;53.164;8.210;2022-09-21T15:52:44;23.00;99.90
9033;DHT22;4551;53.164;8.210;2022-09-21T15:55:15;23.10;99.90
9033;DHT22;4551;53.164;8.210;2022-09-21T15:57:47;23.00;99.90
9033;DHT22;4551;53.164;8.210;2022-09-21T16:00:19;22.90;99.90
9033;DHT22;4551;53.164;8.210;2022-09-21T16:02:53;23.00;99.90
9033;DHT22;4551;53.164;8.210;2022-09-21T16:05:31;23.10;99.90
9033;DHT22;4551;53.164;8.210;2022-09-21T16:08:04;23.20;99.90
9033;DHT22;4551;53.164;8.210;2022-09-21T16:10:38;23.10;99.90
9033;DHT22;4551;53.164;8.210;2022-09-21T16:13:11;23.00;99.90
9033;DHT22;4551;53.164;8.210;2022-09-21T16:16:04;22.90;99.90
9033;DHT22;4551;53.164;8.210;2022-09-21T16:18:39;23.00;99.90
9033;DHT22;4551;53.164;8.210;2022-09-21T16:21:13;22.80;99.90
9033;DHT22;4551;53.164;8.210;2022-09-21T16:23:41;22.70;99.90
9033;DHT22;4551;53.164;8.210;2022-09-21T16:26:16;22.80;99.90
9033;DHT22;4551;53.164;8.210;2022-09-21T16:28:44;22.70;99.90
9033;DHT22;4551;53.164;8.210;2022-09-21T16:31:24;22.60;99.90
9033;DHT22;4551;53.164;8.210;2022-09-21T16:33:56;22.60;99.90
9033;DHT22;4551;53.164;8.210;2022-09-21T16:36:35;22.40;99.90
9033;DHT22;4551;53.164;8.210;2022-09-21T16:39:03;22.30;99.90
9033;DHT22;4551;53.164;8.210;2022-09-21T16:41:36;22.10;99.90
9033;DHT22;4551;53.164;8.210;2022-09-21T16:44:07;22.00;99.90
9033;DHT22;4551;53.164;8.210;2022-09-21T16:46:37;21.70;99.90
9033;DHT22;4551;53.164;8.210;2022-09-21T16:49:07;21.60;99.90
9033;DHT22;4551;53.164;8.210;2022-09-21T16:51:36;21.40;99.90
9033;DHT22;4551;53.164;8.210;2022-09-21T16:54:04;21.20;99.90
9033;DHT22;4551;53.164;8.210;2022-09-21T16:56:32;21.10;99.90
9033;DHT22;4551;53.164;8.210;2022-09-21T16:59:00;20.90;99.90
9033;DHT22;4551;53.164;8.210;2022-09-21T17:01:29;20.70;99.90